Time;durP1;ratioP1;P1;durP2;ratioP2;P2;SDS_P1;SDS_P2;PMS_P1;PMS_P2;Temp;Humidity;BMP_temperature;BMP_pressure;BME280_temperature;BME280_humidity;BME280_pressure;Samples;Min_cycle;Max_cycle;Signal;HPM_P1;HPM_P2
2023/04/29 00:00:53;;;;;;;;;;;;;;;19.38;61.51;98825.63;2088542;28;20019;-47
2023/04/29 00:01:57;;;;;;;;;;;;;;;19.38;61.82;98815.69;2088582;28;20486;-48
2023/04/29 00:03:00;;;;;;;;;;;;;;;19.38;61.70;98822.94;2086312;28;19925;-48
2023/04/29 00:04:01;;;;;;;;;;;;;;;19.38;61.47;98820.25;2086889;28;20016;-51
2023/04/29 00:05:03;;;;;;;;;;;;;;;19.39;61.78;98813.88;2089569;28;19939;-49
2023/04/29 00:06:04;;;;;;;;;;;;;;;19.40;61.40;98824.41;2086581;28;19932;-47
2023/04/29 00:07:07;;;;;;;;;;;;;;;19.38;61.38;98807.63;2088099;28;19928;-47
2023/04/29 00:08:07;;;;;;;;;;;;;;;19.38;61.57;98815.69;2087831;28;19985;-49
2023/04/29 00:09:09;;;;;;;;;;;;;;;19.37;61.64;98807.84;2087180;28;19975;-48
2023/04/29 00:10:13;;;;;;;;;;;;;;;19.37;61.66;98803.28;2085020;28;19933;-52
2023/04/29 00:11:15;;;;;;;;;;;;;;;19.37;61.46;98803.28;2086819;28;19928;-49
2023/04/29 00:12:15;;;;;;;;;;;;;;;19.37;61.59;98800.59;2087225;28;19956;-48
2023/04/29 00:13:17;;;;;;;;;;;;;;;19.38;61.72;98801.44;2087828;28;19932;-52
2023/04/29 00:14:17;;;;;;;;;;;;;;;19.38;61.42;98796.06;2086608;28;19933;-46
2023/04/29 00:15:19;;;;;;;;;;;;;;;19.37;61.45;98800.59;2076841;28;19936;-52
2023/04/29 00:16:19;;;;;;;;;;;;;;;19.37;61.72;98802.47;2076703;28;19936;-47
2023/04/29 00:17:22;;;;;;;;;;;;;;;19.38;61.68;98798.75;2077482;28;19944;-49
2023/04/29 00:18:23;;;;;;;;;;;;;;;19.38;61.44;98799.56;2078896;28;20347;-49
2023/04/29 00:19:24;;;;;;;;;;;;;;;19.36;61.46;98801.66;2078577;28;19936;-51
2023/04/29 00:20:25;;;;;;;;;;;;;;;19.37;61.63;98803.28;2079745;28;19979;-49
2023/04/29 00:21:27;;;;;;;;;;;;;;;19.38;61.64;98798.75;2074746;28;19925;-52
2023/04/29 00:22:28;;;;;;;;;;;;;;;19.38;61.66;98799.56;2076605;28;19936;-51
2023/04/29 00:23:29;;;;;;;;;;;;;;;19.37;61.52;98797.09;2076774;28;19932;-48
2023/04/29 00:24:30;;;;;;;;;;;;;;;19.37;61.40;98797.09;2078547;28;19933;-51
2023/04/29 00:25:32;;;;;;;;;;;;;;;19.37;61.32;98797.09;2077369;28;19926;-47
2023/04/29 00:26:32;;;;;;;;;;;;;;;19.37;61.47;98797.91;2077946;28;19933;-47
2023/04/29 00:27:33;;;;;;;;;;;;;;;19.38;61.55;98796.06;2076973;28;19929;-49
2023/04/29 00:28:34;;;;;;;;;;;;;;;19.35;61.65;98799.16;2078004;28;19979;-46
2023/04/29 00:29:35;;;;;;;;;;;;;;;19.36;61.64;98790.03;2074949;28;20314;-46
2023/04/29 00:30:36;;;;;;;;;;;;;;;19.37;61.34;98795.22;2075571;28;19971;-50
2023/04/29 00:31:37;;;;;;;;;;;;;;;19.37;61.35;98783.66;2075539;28;19986;-45
2023/04/29 00:32:39;;;;;;;;;;;;;;;19.36;61.75;98780.13;2076210;28;19932;-47
2023/04/29 00:33:41;;;;;;;;;;;;;;;19.36;61.67;98781.97;2073412;28;19933;-47
2023/04/29 00:34:41;;;;;;;;;;;;;;;19.35;61.45;98783.00;2074957;28;21919;-46
2023/04/29 00:35:43;;;;;;;;;;;;;;;19.35;61.60;98773.06;2077865;28;19975;-48
2023/04/29 00:36:43;;;;;;;;;;;;;;;19.36;61.26;98768.53;2076554;28;19936;-45
2023/04/29 00:37:45;;;;;;;;;;;;;;;19.35;61.62;98773.06;2077012;28;19925;-46
2023/04/29 00:38:45;;;;;;;;;;;;;;;19.36;61.59;98764.00;2074239;28;19933;-47
2023/04/29 00:39:47;;;;;;;;;;;;;;;19.35;61.61;98761.50;2077438;28;19929;-46
2023/04/29 00:40:47;;;;;;;;;;;;;;;19.35;61.39;98767.69;2078659;28;19933;-47
2023/04/29 00:41:49;;;;;;;;;;;;;;;19.33;61.52;98761.69;2076703;28;19991;-48
2023/04/29 00:42:49;;;;;;;;;;;;;;;19.32;61.48;98757.34;2079237;28;19933;-46
2023/04/29 00:43:51;;;;;;;;;;;;;;;19.33;61.52;98761.69;2077765;28;19932;-47
2023/04/29 00:44:51;;;;;;;;;;;;;;;19.33;61.37;98759.00;2079382;28;19932;-47
2023/04/29 00:45:53;;;;;;;;;;;;;;;19.34;61.55;98757.16;2079099;28;19929;-47
2023/04/29 00:46:53;;;;;;;;;;;;;;;19.34;61.59;98755.31;2079375;28;20020;-47
2023/04/29 00:47:56;;;;;;;;;;;;;;;19.34;61.61;98758.00;2079211;28;19929;-47
2023/04/29 00:48:57;;;;;;;;;;;;;;;19.34;61.44;98751.78;2078992;28;19925;-48
2023/04/29 00:49:58;;;;;;;;;;;;;;;19.34;61.51;98757.16;2077511;28;22644;-46
2023/04/29 00:50:59;;;;;;;;;;;;;;;19.34;61.69;98758.00;2077508;28;19983;-46
2023/04/29 00:52:01;;;;;;;;;;;;;;;19.34;61.49;98754.47;2078752;28;19994;-47
2023/04/29 00:53:01;;;;;;;;;;;;;;;19.34;61.35;98755.31;2075423;28;19964;-47
2023/04/29 00:54:03;;;;;;;;;;;;;;;19.33;61.46;98752.81;2075016;28;19936;-47
2023/04/29 00:55:05;;;;;;;;;;;;;;;19.33;61.59;98752.81;2073305;28;19972;-48
2023/04/29 00:56:07;;;;;;;;;;;;;;;19.32;61.57;98748.47;2077873;28;19924;-48
2023/04/29 00:57:08;;;;;;;;;;;;;;;19.32;61.44;98748.47;2076950;28;20448;-46
2023/04/29 00:58:10;;;;;;;;;;;;;;;19.32;61.38;98745.78;2078081;28;19968;-49
2023/04/29 00:59:11;;;;;;;;;;;;;;;19.32;61.74;98745.78;2078829;28;19942;-45
2023/04/29 01:00:13;;;;;;;;;;;;;;;19.31;61.53;98750.34;2078425;28;19974;-46
2023/04/29 01:01:13;;;;;;;;;;;;;;;19.31;61.71;98749.50;2078928;28;21569;-46
2023/04/29 01:02:15;;;;;;;;;;;;;;;19.31;61.31;98750.34;2078418;28;20056;-46
2023/04/29 01:03:18;;;;;;;;;;;;;;;19.31;61.65;98744.94;2079346;28;19998;-45
2023/04/29 01:04:19;;;;;;;;;;;;;;;19.32;61.37;98745.78;2078658;28;20015;-45
2023/04/29 01:05:21;;;;;;;;;;;;;;;19.32;61.57;98743.09;2078691;28;20566;-47
2023/04/29 01:06:27;;;;;;;;;;;;;;;19.33;61.37;98742.03;2078388;28;19928;-47
2023/04/29 01:07:31;;;;;;;;;;;;;;;19.31;61.48;98742.25;2078946;28;20015;-46
2023/04/29 01:08:36;;;;;;;;;;;;;;;19.31;61.49;98744.13;2077044;28;20610;-47
2023/04/29 01:09:48;;;;;;;;;;;;;;;19.30;61.38;98737.91;2077958;28;19925;-46
2023/04/29 01:10:53;;;;;;;;;;;;;;;19.29;61.58;98735.44;2076333;28;19932;-48
2023/04/29 01:12:01;;;;;;;;;;;;;;;19.30;61.58;98739.75;2075446;28;19933;-46
2023/04/29 01:13:06;;;;;;;;;;;;;;;19.30;61.20;98729.00;2078528;28;19962;-45
2023/04/29 01:14:07;;;;;;;;;;;;;;;19.29;61.58;98728.19;2076223;28;20008;-47
2023/04/29 01:15:12;;;;;;;;;;;;;;;19.28;61.71;98729.22;2077780;28;19931;-45
2023/04/29 01:16:19;;;;;;;;;;;;;;;19.28;61.34;98729.22;2079165;28;19990;-46
2023/04/29 01:17:25;;;;;;;;;;;;;;;19.29;61.53;98724.69;2080602;28;20014;-47
2023/04/29 01:18:29;;;;;;;;;;;;;;;19.28;61.60;98726.53;2078888;28;20406;-46
2023/04/29 01:19:39;;;;;;;;;;;;;;;19.29;61.29;98728.19;2076292;28;19925;-46
2023/04/29 01:20:39;;;;;;;;;;;;;;;19.29;61.64;98720.13;2077646;28;19955;-46
2023/04/29 01:21:45;;;;;;;;;;;;;;;19.28;61.54;98721.16;2077559;28;20040;-46
2023/04/29 01:22:46;;;;;;;;;;;;;;;19.28;61.57;98723.84;2080225;28;19933;-47
2023/04/29 01:23:54;;;;;;;;;;;;;;;19.27;61.14;98724.88;2081060;28;19932;-45
2023/04/29 01:24:55;;;;;;;;;;;;;;;19.28;61.40;98718.47;2080699;28;20986;-47
2023/04/29 01:25:57;;;;;;;;;;;;;;;19.29;61.46;98716.59;2079985;28;20441;-48
2023/04/29 01:27:01;;;;;;;;;;;;;;;19.29;61.59;98713.91;2078753;28;19933;-46
2023/04/29 01:28:07;;;;;;;;;;;;;;;19.28;61.55;98723.84;2077890;28;20519;-46
2023/04/29 01:29:17;;;;;;;;;;;;;;;19.29;61.54;98724.69;2075655;28;19952;-47
2023/04/29 01:30:27;;;;;;;;;;;;;;;19.27;61.43;98722.19;2078664;28;19929;-46
2023/04/29 01:31:30;;;;;;;;;;;;;;;19.27;61.41;98713.28;2085531;28;19925;-48
2023/04/29 01:32:37;;;;;;;;;;;;;;;19.27;61.70;98722.19;2087674;28;20886;-47
2023/04/29 01:33:40;;;;;;;;;;;;;;;19.25;61.36;98718.88;2087631;28;19932;-46
2023/04/29 01:34:44;;;;;;;;;;;;;;;19.26;61.63;98725.91;2087880;28;19928;-47
2023/04/29 01:35:51;;;;;;;;;;;;;;;19.26;61.46;98720.53;2086093;28;19997;-48
2023/04/29 01:36:56;;;;;;;;;;;;;;;19.28;61.21;98718.47;2088060;28;19932;-51
2023/04/29 01:38:02;;;;;;;;;;;;;;;19.27;61.51;98724.03;2087887;28;19929;-48
2023/04/29 01:39:09;;;;;;;;;;;;;;;19.25;61.38;98713.50;2087168;28;19978;-47
2023/04/29 01:40:11;;;;;;;;;;;;;;;19.25;61.46;98713.50;2087904;28;19929;-45
2023/04/29 01:41:15;;;;;;;;;;;;;;;19.26;61.29;98719.72;2087915;28;19986;-46
2023/04/29 01:42:20;;;;;;;;;;;;;;;19.26;61.50;98715.16;2088779;28;19932;-45
2023/04/29 01:43:23;;;;;;;;;;;;;;;19.25;61.59;98716.19;2087126;28;19932;-47
2023/04/29 01:44:26;;;;;;;;;;;;;;;19.26;61.11;98714.34;2086653;28;19929;-46
2023/04/29 01:45:28;;;;;;;;;;;;;;;19.26;61.61;98714.34;2084552;28;20630;-45
2023/04/29 01:46:29;;;;;;;;;;;;;;;19.26;61.34;98720.53;2088922;28;19929;-46
2023/04/29 01:47:32;;;;;;;;;;;;;;;19.25;61.21;98718.88;2088723;28;19929;-47
2023/04/29 01:48:32;;;;;;;;;;;;;;;19.25;61.21;98726.97;2089250;28;19994;-47
2023/04/29 01:49:35;;;;;;;;;;;;;;;19.25;61.56;98726.97;2088662;28;19928;-47
2023/04/29 01:50:36;;;;;;;;;;;;;;;19.26;61.24;98731.28;2089715;28;19925;-47
2023/04/29 01:51:37;;;;;;;;;;;;;;;19.27;61.19;98724.03;2086964;28;20353;-48
2023/04/29 01:52:38;;;;;;;;;;;;;;;19.27;61.52;98724.88;2087190;28;19982;-48
2023/04/29 01:53:40;;;;;;;;;;;;;;;19.26;61.57;98728.59;2086521;28;19990;-47
2023/04/29 01:54:42;;;;;;;;;;;;;;;19.27;61.49;98722.19;2085908;28;19933;-46
2023/04/29 01:55:43;;;;;;;;;;;;;;;19.26;61.62;98722.41;2087181;28;20264;-45
2023/04/29 01:56:44;;;;;;;;;;;;;;;19.26;61.39;98725.91;2087346;28;19940;-51
2023/04/29 01:57:45;;;;;;;;;;;;;;;19.25;61.62;98723.41;2088951;28;19971;-48
2023/04/29 01:58:46;;;;;;;;;;;;;;;19.25;61.49;98720.72;2087997;28;20168;-46
2023/04/29 01:59:47;;;;;;;;;;;;;;;19.25;61.52;98718.88;2087386;28;19982;-45
2023/04/29 02:00:48;;;;;;;;;;;;;;;19.24;61.61;98714.53;2088372;28;19947;-47
2023/04/29 02:01:50;;;;;;;;;;;;;;;19.23;61.30;98715.56;2075461;28;20362;-51
2023/04/29 02:02:50;;;;;;;;;;;;;;;19.24;61.33;98706.47;2084688;28;20394;-47
2023/04/29 02:03:52;;;;;;;;;;;;;;;19.25;61.45;98715.34;2085404;28;20011;-48
2023/04/29 02:04:52;;;;;;;;;;;;;;;19.26;61.49;98709.78;2087959;28;20556;-46
2023/04/29 02:05:53;;;;;;;;;;;;;;;19.26;61.22;98709.78;2088067;28;20002;-45
2023/04/29 02:06:54;;;;;;;;;;;;;;;19.27;61.36;98708.72;2088635;28;19990;-47
2023/04/29 02:07:56;;;;;;;;;;;;;;;19.27;61.55;98706.03;2085749;28;19983;-47
2023/04/29 02:08:56;;;;;;;;;;;;;;;19.25;61.12;98702.75;2086815;28;20411;-47
2023/04/29 02:09:59;;;;;;;;;;;;;;;19.26;61.12;98698.19;2087286;28;19929;-46
2023/04/29 02:11:00;;;;;;;;;;;;;;;19.27;61.19;98699.84;2086752;28;20067;-45
2023/04/29 02:12:03;;;;;;;;;;;;;;;19.26;61.02;98700.88;2086543;28;19937;-47
2023/04/29 02:13:03;;;;;;;;;;;;;;;19.24;61.36;98701.09;2088072;28;19951;-45
2023/04/29 02:14:05;;;;;;;;;;;;;;;19.25;61.49;98704.59;2087361;28;19928;-46
2023/04/29 02:15:06;;;;;;;;;;;;;;;19.24;61.17;98698.41;2086186;28;19975;-46
2023/04/29 02:16:08;;;;;;;;;;;;;;;19.25;61.30;98704.59;2086896;28;19929;-46
2023/04/29 02:17:09;;;;;;;;;;;;;;;19.24;61.24;98701.09;2084850;28;19925;-47
2023/04/29 02:18:10;;;;;;;;;;;;;;;19.26;61.21;98703.56;2088563;28;19935;-45
2023/04/29 02:19:11;;;;;;;;;;;;;;;19.25;61.45;98702.75;2087744;28;19947;-46
2023/04/29 02:20:12;;;;;;;;;;;;;;;19.25;61.42;98702.75;2088152;28;20054;-48
2023/04/29 02:21:13;;;;;;;;;;;;;;;19.25;61.49;98701.91;2083581;28;19932;-45
2023/04/29 02:22:14;;;;;;;;;;;;;;;19.24;61.21;98702.94;2086168;28;19925;-45
2023/04/29 02:23:15;;;;;;;;;;;;;;;19.23;61.40;98710.19;2083468;28;19924;-48
2023/04/29 02:24:16;;;;;;;;;;;;;;;19.24;61.18;98709.16;2084649;28;19991;-46
2023/04/29 02:25:18;;;;;;;;;;;;;;;19.23;61.36;98704.81;2088949;28;20069;-48
2023/04/29 02:26:19;;;;;;;;;;;;;;;19.24;61.12;98700.25;2086697;28;19928;-46
2023/04/29 02:27:20;;;;;;;;;;;;;;;19.24;61.39;98711.84;2086668;28;19979;-50
2023/04/29 02:28:22;;;;;;;;;;;;;;;19.24;61.24;98711.84;2087255;28;20378;-46
2023/04/29 02:29:25;;;;;;;;;;;;;;;19.23;61.35;98707.50;2085071;28;19978;-45
2023/04/29 02:30:26;;;;;;;;;;;;;;;19.24;61.16;98711.84;2087165;28;19968;-46
2023/04/29 02:31:27;;;;;;;;;;;;;;;19.23;61.37;98707.50;2087935;28;19929;-47
2023/04/29 02:32:29;;;;;;;;;;;;;;;19.22;61.11;98707.69;2088181;28;21784;-46
2023/04/29 02:33:30;;;;;;;;;;;;;;;19.22;61.38;98703.13;2081859;28;19924;-47
2023/04/29 02:34:31;;;;;;;;;;;;;;;19.23;61.16;98709.38;2085683;28;19986;-46
2023/04/29 02:35:32;;;;;;;;;;;;;;;19.22;61.31;98705.81;2086924;28;19933;-46
2023/04/29 02:36:33;;;;;;;;;;;;;;;19.23;61.46;98710.19;2085509;28;20471;-47
2023/04/29 02:37:34;;;;;;;;;;;;;;;19.22;61.15;98697.75;2087015;28;20035;-48
2023/04/29 02:38:35;;;;;;;;;;;;;;;19.22;61.42;98708.50;2088632;28;20393;-49
2023/04/29 02:39:36;;;;;;;;;;;;;;;19.22;61.08;98708.50;2086708;28;20549;-47
2023/04/29 02:40:42;;;;;;;;;;;;;;;19.21;61.55;98712.25;2087577;28;19979;-48
2023/04/29 02:41:43;;;;;;;;;;;;;;;19.23;61.42;98704.00;2085932;28;19940;-48
2023/04/29 02:42:44;;;;;;;;;;;;;;;19.22;60.99;98705.81;2085821;28;20040;-48
2023/04/29 02:43:45;;;;;;;;;;;;;;;19.20;61.36;98699.84;2085862;28;19925;-47
2023/04/29 02:44:46;;;;;;;;;;;;;;;19.20;61.31;98699.84;2086497;28;20268;-45
2023/04/29 02:45:47;;;;;;;;;;;;;;;19.20;61.19;98699.84;2088255;28;19928;-46
2023/04/29 02:46:48;;;;;;;;;;;;;;;19.20;61.19;98694.47;2085703;28;19924;-47
2023/04/29 02:47:49;;;;;;;;;;;;;;;19.22;61.06;98696.94;2086959;28;19936;-48
2023/04/29 02:48:50;;;;;;;;;;;;;;;19.21;61.33;98685.38;2085704;28;19934;-45
2023/04/29 02:49:50;;;;;;;;;;;;;;;19.19;61.13;98685.59;2084053;28;19932;-48
2023/04/29 02:50:52;;;;;;;;;;;;;;;19.21;61.22;98690.75;2086165;28;19925;-46
2023/04/29 02:51:53;;;;;;;;;;;;;;;19.20;61.03;98689.91;2087829;28;19932;-46
2023/04/29 02:52:54;;;;;;;;;;;;;;;19.21;61.16;98685.38;2087823;28;19929;-46
2023/04/29 02:53:55;;;;;;;;;;;;;;;19.22;61.06;98680.81;2087837;28;19925;-47
2023/04/29 02:54:56;;;;;;;;;;;;;;;19.21;61.23;98685.38;2085894;28;20027;-47
2023/04/29 02:55:58;;;;;;;;;;;;;;;19.22;61.05;98692.38;2088248;28;19929;-47
2023/04/29 02:56:59;;;;;;;;;;;;;;;19.21;61.23;98685.38;2085904;28;20390;-49
2023/04/29 02:58:00;;;;;;;;;;;;;;;19.18;61.15;98675.84;2085918;28;21079;-45
2023/04/29 02:59:01;;;;;;;;;;;;;;;19.20;61.12;98681.03;2085897;28;19937;-46
2023/04/29 03:00:02;;;;;;;;;;;;;;;19.19;60.92;98676.66;2085986;28;20287;-48
2023/04/29 03:01:04;;;;;;;;;;;;;;;19.19;61.08;98676.66;2086637;28;19975;-47
2023/04/29 03:02:05;;;;;;;;;;;;;;;19.18;61.01;98680.41;2087227;28;19928;-49
2023/04/29 03:03:06;;;;;;;;;;;;;;;19.18;61.26;98683.09;2086425;28;19933;-50
2023/04/29 03:04:06;;;;;;;;;;;;;;;19.18;61.17;98688.47;2085964;28;19928;-48
2023/04/29 03:05:09;;;;;;;;;;;;;;;19.18;61.07;98689.28;2081745;28;20617;-47
2023/04/29 03:06:09;;;;;;;;;;;;;;;19.20;61.35;98697.16;2087292;28;20391;-47
2023/04/29 03:07:10;;;;;;;;;;;;;;;19.16;61.02;98701.28;2087082;28;19935;-45
2023/04/29 03:08:11;;;;;;;;;;;;;;;19.16;61.29;98698.59;2085798;28;19929;-46
2023/04/29 03:09:13;;;;;;;;;;;;;;;19.18;61.42;98691.97;2086165;28;20826;-49
2023/04/29 03:10:13;;;;;;;;;;;;;;;19.18;61.06;98683.09;2087325;28;19972;-48
2023/04/29 03:11:16;;;;;;;;;;;;;;;19.15;61.08;98673.56;2088116;28;19925;-46
2023/04/29 03:12:17;;;;;;;;;;;;;;;19.16;61.23;98671.69;2086066;28;19933;-48
2023/04/29 03:13:18;;;;;;;;;;;;;;;19.15;61.30;98675.44;2087522;27;20040;-50
2023/04/29 03:14:19;;;;;;;;;;;;;;;19.15;60.97;98670.88;2088666;28;19925;-48
2023/04/29 03:15:21;;;;;;;;;;;;;;;19.17;61.28;98679.56;2085074;28;19932;-53
2023/04/29 03:16:22;;;;;;;;;;;;;;;19.17;61.11;98681.44;2086963;28;19928;-46
2023/04/29 03:17:23;;;;;;;;;;;;;;;19.17;60.90;98671.50;2086787;28;19933;-51
2023/04/29 03:18:24;;;;;;;;;;;;;;;19.15;61.03;98670.06;2086876;28;19924;-48
2023/04/29 03:19:25;;;;;;;;;;;;;;;19.14;61.02;98674.63;2088286;28;19932;-48
2023/04/29 03:20:25;;;;;;;;;;;;;;;19.13;61.34;98678.31;2086279;28;19982;-51
2023/04/29 03:21:28;;;;;;;;;;;;;;;19.15;60.96;98675.44;2085069;28;19929;-49
2023/04/29 03:22:29;;;;;;;;;;;;;;;19.15;61.29;98673.56;2088071;28;19929;-48
2023/04/29 03:23:30;;;;;;;;;;;;;;;19.15;61.14;98665.50;2082990;28;20019;-49
2023/04/29 03:24:31;;;;;;;;;;;;;;;19.15;61.13;98676.25;2085865;28;19977;-48
2023/04/29 03:25:33;;;;;;;;;;;;;;;19.16;60.98;98672.53;2085594;28;19940;-48
2023/04/29 03:26:34;;;;;;;;;;;;;;;19.14;60.96;98674.63;2085935;28;19977;-48
2023/04/29 03:27:36;;;;;;;;;;;;;;;19.15;61.06;98672.75;2086333;28;19929;-50
2023/04/29 03:28:36;;;;;;;;;;;;;;;19.17;61.23;98673.38;2086768;28;19944;-48
2023/04/29 03:29:38;;;;;;;;;;;;;;;19.16;61.17;98677.09;2087345;28;20024;-49
2023/04/29 03:30:38;;;;;;;;;;;;;;;19.16;61.01;98677.09;2086313;28;20062;-47
2023/04/29 03:31:40;;;;;;;;;;;;;;;19.14;60.84;98681.84;2084853;28;20583;-49
2023/04/29 03:32:41;;;;;;;;;;;;;;;19.14;60.98;98680.00;2085497;28;20673;-47
2023/04/29 03:33:42;;;;;;;;;;;;;;;19.15;60.88;98675.44;2085654;28;19980;-50
2023/04/29 03:34:42;;;;;;;;;;;;;;;19.15;60.96;98672.75;2085161;28;19929;-47
2023/04/29 03:35:44;;;;;;;;;;;;;;;19.14;60.87;98674.63;2086966;28;20594;-48
2023/04/29 03:36:46;;;;;;;;;;;;;;;19.15;61.10;98675.44;2087630;28;20500;-49
2023/04/29 03:37:46;;;;;;;;;;;;;;;19.14;61.15;98671.94;2086614;28;19925;-47
2023/04/29 03:38:48;;;;;;;;;;;;;;;19.14;61.16;98663.03;2086968;28;19929;-49
2023/04/29 03:39:48;;;;;;;;;;;;;;;19.14;61.20;98668.41;2084703;28;20427;-50
2023/04/29 03:40:50;;;;;;;;;;;;;;;19.13;60.97;98658.69;2089005;28;19928;-48
2023/04/29 03:41:51;;;;;;;;;;;;;;;19.14;61.20;98663.03;2086161;28;20572;-48
2023/04/29 03:42:53;;;;;;;;;;;;;;;19.15;61.10;98659.31;2089364;28;20015;-48
2023/04/29 03:43:55;;;;;;;;;;;;;;;19.17;60.86;98654.56;2088109;28;19978;-50
2023/04/29 03:44:56;;;;;;;;;;;;;;;19.16;61.12;98658.25;2086923;28;20023;-46
2023/04/29 03:45:57;;;;;;;;;;;;;;;19.15;60.91;98651.25;2086733;28;19932;-46
2023/04/29 03:46:58;;;;;;;;;;;;;;;19.13;61.04;98653.31;2084788;28;19924;-48
2023/04/29 03:47:59;;;;;;;;;;;;;;;19.10;61.19;98645.66;2086662;28;19954;-47
2023/04/29 03:49:01;;;;;;;;;;;;;;;19.12;61.13;98652.47;2087295;28;20325;-47
2023/04/29 03:50:01;;;;;;;;;;;;;;;19.12;61.12;98647.09;2086200;28;19933;-47
2023/04/29 03:51:03;;;;;;;;;;;;;;;19.13;60.99;98642.53;2085811;28;20015;-46
2023/04/29 03:52:03;;;;;;;;;;;;;;;19.14;61.05;98652.28;2086433;28;19940;-46
2023/04/29 03:53:05;;;;;;;;;;;;;;;19.14;60.91;98642.34;2085603;28;19936;-49
2023/04/29 03:54:06;;;;;;;;;;;;;;;19.16;61.00;98639.44;2085994;28;20820;-45
2023/04/29 03:55:08;;;;;;;;;;;;;;;19.14;61.09;98642.34;2085931;28;19978;-47
2023/04/29 03:56:08;;;;;;;;;;;;;;;19.12;61.11;98644.41;2083897;28;19925;-50
2023/04/29 03:57:11;;;;;;;;;;;;;;;19.11;60.91;98645.47;2088353;28;19928;-48
2023/04/29 03:58:12;;;;;;;;;;;;;;;19.11;61.04;98649.97;2087304;28;19957;-49
2023/04/29 03:59:13;;;;;;;;;;;;;;;19.13;60.77;98651.44;2087416;28;19978;-47
2023/04/29 04:00:14;;;;;;;;;;;;;;;19.14;61.21;98652.28;2086874;28;19924;-47
2023/04/29 04:01:15;;;;;;;;;;;;;;;19.14;60.81;98650.41;2085676;28;19924;-47
2023/04/29 04:02:16;;;;;;;;;;;;;;;19.13;60.86;98647.94;2088334;28;20490;-47
2023/04/29 04:03:17;;;;;;;;;;;;;;;19.11;61.21;98648.16;2086409;28;19939;-47
2023/04/29 04:04:18;;;;;;;;;;;;;;;19.12;60.95;98646.28;2084526;28;20053;-47
2023/04/29 04:05:19;;;;;;;;;;;;;;;19.11;60.81;98637.41;2086232;28;19928;-48
2023/04/29 04:06:20;;;;;;;;;;;;;;;19.09;61.01;98633.25;2085844;28;20015;-49
2023/04/29 04:07:21;;;;;;;;;;;;;;;19.09;60.95;98630.56;2086268;28;19932;-47
2023/04/29 04:08:22;;;;;;;;;;;;;;;19.09;60.74;98633.25;2085732;28;19932;-49
2023/04/29 04:09:23;;;;;;;;;;;;;;;19.09;61.02;98638.63;2085908;28;19932;-47
2023/04/29 04:10:24;;;;;;;;;;;;;;;19.09;60.93;98638.63;2086068;28;19971;-47
2023/04/29 04:11:25;;;;;;;;;;;;;;;19.10;60.91;98640.28;2086439;28;19937;-47
2023/04/29 04:12:27;;;;;;;;;;;;;;;19.11;60.78;98647.28;2086276;28;19933;-51
2023/04/29 04:13:29;;;;;;;;;;;;;;;19.07;60.91;98640.69;2082422;28;19928;-47
2023/04/29 04:14:29;;;;;;;;;;;;;;;19.08;60.74;98637.78;2086254;28;19933;-48
2023/04/29 04:15:30;;;;;;;;;;;;;;;19.09;61.00;98642.13;2084603;28;19933;-48
2023/04/29 04:16:31;;;;;;;;;;;;;;;19.10;60.80;98640.28;2086442;28;19982;-49
2023/04/29 04:17:32;;;;;;;;;;;;;;;19.10;61.06;98634.91;2087103;28;19981;-47
2023/04/29 04:18:33;;;;;;;;;;;;;;;19.09;60.66;98633.25;2088235;28;19929;-51
2023/04/29 04:19:34;;;;;;;;;;;;;;;19.07;60.78;98635.31;2085435;28;19982;-49
2023/04/29 04:20:36;;;;;;;;;;;;;;;19.08;60.61;98628.91;2086378;28;19929;-47
2023/04/29 04:21:37;;;;;;;;;;;;;;;19.08;61.08;98635.09;2086396;28;19998;-47
2023/04/29 04:22:37;;;;;;;;;;;;;;;19.10;60.83;98624.97;2083163;28;19971;-47
2023/04/29 04:23:40;;;;;;;;;;;;;;;19.09;60.80;98635.94;2087762;28;19932;-50
2023/04/29 04:24:40;;;;;;;;;;;;;;;19.07;61.10;98632.63;2085938;28;19929;-49
2023/04/29 04:25:45;;;;;;;;;;;;;;;19.05;60.71;98623.94;2086244;28;19929;-49
2023/04/29 04:26:45;;;;;;;;;;;;;;;19.08;61.03;98626.19;2086190;28;19932;-50
2023/04/29 04:27:48;;;;;;;;;;;;;;;19.08;60.94;98626.19;2085871;28;19924;-51
2023/04/29 04:28:48;;;;;;;;;;;;;;;19.10;60.82;98627.66;2086244;28;20414;-47
2023/04/29 04:29:53;;;;;;;;;;;;;;;19.07;61.08;98625.38;2086795;28;19932;-47
2023/04/29 04:30:53;;;;;;;;;;;;;;;19.05;60.79;98637.38;2086143;28;20077;-47
2023/04/29 04:31:54;;;;;;;;;;;;;;;19.05;60.88;98640.88;2086110;28;19955;-44
2023/04/29 04:32:55;;;;;;;;;;;;;;;19.07;60.96;98635.31;2085891;28;19928;-50
2023/04/29 04:33:58;;;;;;;;;;;;;;;19.09;61.07;98630.56;2086510;28;19981;-48
2023/04/29 04:34:58;;;;;;;;;;;;;;;19.07;60.68;98625.38;2085177;28;19931;-51
2023/04/29 04:36:00;;;;;;;;;;;;;;;19.07;60.87;98627.25;2086581;28;19928;-50
2023/04/29 04:37:00;;;;;;;;;;;;;;;19.07;60.83;98632.63;2087305;28;20024;-48
2023/04/29 04:38:02;;;;;;;;;;;;;;;19.08;60.94;98631.59;2086868;28;19957;-49
2023/04/29 04:39:03;;;;;;;;;;;;;;;19.08;60.99;98643.16;2083364;28;19932;-46
2023/04/29 04:40:05;;;;;;;;;;;;;;;19.09;60.78;98644.00;2087252;28;19932;-49
2023/04/29 04:41:06;;;;;;;;;;;;;;;19.08;60.79;98640.47;2086204;28;19931;-47
2023/04/29 04:42:07;;;;;;;;;;;;;;;19.04;60.86;98641.94;2087138;28;19940;-53
2023/04/29 04:43:09;;;;;;;;;;;;;;;19.09;61.03;98649.38;2086156;28;20287;-55
2023/04/29 04:44:11;;;;;;;;;;;;;;;19.07;60.82;98635.31;2086974;28;20020;-51
2023/04/29 04:45:11;;;;;;;;;;;;;;;19.08;60.77;98647.72;2086848;28;19966;-52
2023/04/29 04:46:13;;;;;;;;;;;;;;;19.08;60.91;98647.72;2085558;28;19937;-50
2023/04/29 04:47:14;;;;;;;;;;;;;;;19.08;60.91;98647.72;2086950;28;19960;-51
2023/04/29 04:48:15;;;;;;;;;;;;;;;19.08;60.79;98648.53;2086061;28;19995;-48
2023/04/29 04:49:16;;;;;;;;;;;;;;;19.07;61.02;98656.81;2085086;28;19981;-51
2023/04/29 04:50:17;;;;;;;;;;;;;;;19.09;61.15;98660.13;2086887;28;20539;-48
2023/04/29 04:51:18;;;;;;;;;;;;;;;19.06;60.87;98655.19;2086066;28;20011;-51
2023/04/29 04:52:20;;;;;;;;;;;;;;;19.05;60.89;98650.81;2085428;28;20537;-46
2023/04/29 04:53:21;;;;;;;;;;;;;;;19.04;60.63;98652.69;2087785;28;19970;-48
2023/04/29 04:54:22;;;;;;;;;;;;;;;19.05;60.78;98653.50;2085463;28;20583;-45
2023/04/29 04:55:23;;;;;;;;;;;;;;;19.05;60.89;98656.19;2087407;28;19929;-51
2023/04/29 04:56:24;;;;;;;;;;;;;;;19.05;60.55;98654.31;2083389;28;19925;-47
2023/04/29 04:57:25;;;;;;;;;;;;;;;19.06;60.85;98650.63;2086143;28;20376;-48
2023/04/29 04:58:30;;;;;;;;;;;;;;;19.05;60.67;98645.44;2088396;28;19986;-48
2023/04/29 04:59:30;;;;;;;;;;;;;;;19.06;60.66;98649.81;2089431;28;19985;-54
2023/04/29 05:00:32;;;;;;;;;;;;;;;19.05;60.58;98653.50;2088699;28;19936;-48
2023/04/29 05:01:33;;;;;;;;;;;;;;;19.03;61.15;98656.41;2086630;28;20968;-53
2023/04/29 05:02:34;;;;;;;;;;;;;;;19.06;60.55;98655.19;2089586;28;19928;-48
2023/04/29 05:03:35;;;;;;;;;;;;;;;19.05;60.62;98656.19;2086116;28;20389;-48
2023/04/29 05:04:37;;;;;;;;;;;;;;;19.04;60.94;98651.84;2086752;28;19924;-49
2023/04/29 05:05:37;;;;;;;;;;;;;;;19.05;60.65;98653.50;2088020;28;19935;-47
2023/04/29 05:06:38;;;;;;;;;;;;;;;19.05;60.52;98648.13;2087681;28;19929;-45
2023/04/29 05:07:39;;;;;;;;;;;;;;;19.03;60.68;98652.88;2088124;28;19974;-50
2023/04/29 05:08:40;;;;;;;;;;;;;;;19.01;60.82;98655.78;2088718;28;19982;-46
2023/04/29 05:09:41;;;;;;;;;;;;;;;19.04;60.92;98649.16;2086514;28;19957;-51
2023/04/29 05:10:42;;;;;;;;;;;;;;;19.04;60.86;98650.00;2087621;28;19994;-48
2023/04/29 05:11:44;;;;;;;;;;;;;;;19.03;60.69;98653.72;2085589;28;20015;-54
2023/04/29 05:12:44;;;;;;;;;;;;;;;19.04;60.70;98654.53;2083803;28;20329;-47
2023/04/29 05:13:47;;;;;;;;;;;;;;;19.04;60.48;98654.53;2087296;28;19987;-45
2023/04/29 05:14:51;;;;;;;;;;;;;;;19.05;60.74;98661.56;2088808;28;19928;-53
2023/04/29 05:15:53;;;;;;;;;;;;;;;19.04;60.65;98657.22;2086991;28;19936;-48
2023/04/29 05:16:57;;;;;;;;;;;;;;;19.04;60.77;98662.63;2089038;28;20366;-49
2023/04/29 05:17:58;;;;;;;;;;;;;;;19.05;60.59;98669.63;2087579;28;19951;-49
2023/04/29 05:18:59;;;;;;;;;;;;;;;19.07;60.70;98662.19;2086630;28;19972;-48
2023/04/29 05:20:00;;;;;;;;;;;;;;;19.03;60.48;98660.94;2077026;28;19940;-51
2023/04/29 05:21:01;;;;;;;;;;;;;;;19.05;60.76;98658.88;2080462;28;19983;-51
2023/04/29 05:22:02;;;;;;;;;;;;;;;19.05;60.48;98659.69;2081119;28;19936;-50